sensor_id;sensor_type;location;lat;lon;timestamp;temperature;humidity
17483;DHT22;8858;52.308;20.994;2023-12-07T00:01:39;1.20;99.90
17483;DHT22;8858;52.308;20.994;2023-12-07T00:04:09;1.20;99.90
17483;DHT22;8858;52.308;20.994;2023-12-07T00:06:37;1.20;99.90
17483;DHT22;8858;52.308;20.994;2023-12-07T00:09:06;1.20;99.90
17483;DHT22;8858;52.308;20.994;2023-12-07T00:11:34;1.20;99.90
17483;DHT22;8858;52.308;20.994;2023-12-07T00:14:02;1.20;99.90
17483;DHT22;8858;52.308;20.994;2023-12-07T00:16:30;1.20;99.90
17483;DHT22;8858;52.308;20.994;2023-12-07T00:18:59;1.30;99.90
17483;DHT22;8858;52.308;20.994;2023-12-07T00:21:29;1.30;99.90
17483;DHT22;8858;52.308;20.994;2023-12-07T00:23:57;1.30;99.90
17483;DHT22;8858;52.308;20.994;2023-12-07T00:26:25;1.30;99.90
17483;DHT22;8858;52.308;20.994;2023-12-07T00:28:57;1.20;99.90
17483;DHT22;8858;52.308;20.994;2023-12-07T00:31:26;1.30;99.90
17483;DHT22;8858;52.308;20.994;2023-12-07T00:33:55;1.30;99.90
17483;DHT22;8858;52.308;20.994;2023-12-07T00:36:24;1.30;99.90
17483;DHT22;8858;52.308;20.994;2023-12-07T00:38:54;1.30;99.90
17483;DHT22;8858;52.308;20.994;2023-12-07T00:41:24;1.30;99.90
17483;DHT22;8858;52.308;20.994;2023-12-07T00:43:54;1.30;99.90
17483;DHT22;8858;52.308;20.994;2023-12-07T00:46:23;1.30;99.90
17483;DHT22;8858;52.308;20.994;2023-12-07T00:48:52;1.30;99.90
17483;DHT22;8858;52.308;20.994;2023-12-07T00:51:20;1.30;99.90
17483;DHT22;8858;52.308;20.994;2023-12-07T00:53:51;1.30;99.90
17483;DHT22;8858;52.308;20.994;2023-12-07T00:56:24;1.30;99.90
17483;DHT22;8858;52.308;20.994;2023-12-07T00:58:54;1.30;99.90
17483;DHT22;8858;52.308;20.994;2023-12-07T01:01:22;1.30;99.90
17483;DHT22;8858;52.308;20.994;2023-12-07T01:03:51;1.30;99.90
17483;DHT22;8858;52.308;20.994;2023-12-07T01:06:19;1.30;99.90
17483;DHT22;8858;52.308;20.994;2023-12-07T01:08:52;1.40;99.90
17483;DHT22;8858;52.308;20.994;2023-12-07T01:11:20;1.40;99.90
17483;DHT22;8858;52.308;20.994;2023-12-07T01:13:50;1.30;99.90
17483;DHT22;8858;52.308;20.994;2023-12-07T01:16:18;1.40;99.90
17483;DHT22;8858;52.308;20.994;2023-12-07T01:19:10;1.40;99.90
17483;DHT22;8858;52.308;20.994;2023-12-07T01:21:45;1.40;99.90
17483;DHT22;8858;52.308;20.994;2023-12-07T01:24:16;1.40;99.90
17483;DHT22;8858;52.308;20.994;2023-12-07T01:26:45;1.40;99.90
17483;DHT22;8858;52.308;20.994;2023-12-07T01:29:15;1.40;99.90
17483;DHT22;8858;52.308;20.994;2023-12-07T01:31:45;1.40;99.90
17483;DHT22;8858;52.308;20.994;2023-12-07T01:34:16;1.40;99.90
17483;DHT22;8858;52.308;20.994;2023-12-07T01:36:45;1.40;99.90
17483;DHT22;8858;52.308;20.994;2023-12-07T01:39:13;1.40;99.90
17483;DHT22;8858;52.308;20.994;2023-12-07T01:41:43;1.40;99.90
17483;DHT22;8858;52.308;20.994;2023-12-07T01:44:12;1.40;99.90
17483;DHT22;8858;52.308;20.994;2023-12-07T01:46:42;1.40;99.90
17483;DHT22;8858;52.308;20.994;2023-12-07T01:49:12;1.40;99.90
17483;DHT22;8858;52.308;20.994;2023-12-07T01:51:40;1.40;99.90
17483;DHT22;8858;52.308;20.994;2023-12-07T01:54:08;1.40;99.90
17483;DHT22;8858;52.308;20.994;2023-12-07T01:56:37;1.40;99.90
17483;DHT22;8858;52.308;20.994;2023-12-07T01:59:05;1.40;99.90
17483;DHT22;8858;52.308;20.994;2023-12-07T02:01:39;1.40;99.90
17483;DHT22;8858;52.308;20.994;2023-12-07T02:04:13;1.40;99.90
17483;DHT22;8858;52.308;20.994;2023-12-07T02:06:47;1.40;99.90
17483;DHT22;8858;52.308;20.994;2023-12-07T02:09:15;1.50;99.90
17483;DHT22;8858;52.308;20.994;2023-12-07T02:11:45;1.40;99.90
17483;DHT22;8858;52.308;20.994;2023-12-07T02:15:02;1.50;99.90
17483;DHT22;8858;52.308;20.994;2023-12-07T02:17:35;1.40;99.90
17483;DHT22;8858;52.308;20.994;2023-12-07T02:20:13;1.40;99.90
17483;DHT22;8858;52.308;20.994;2023-12-07T02:22:48;1.50;99.90
17483;DHT22;8858;52.308;20.994;2023-12-07T02:25:26;1.50;99.90
17483;DHT22;8858;52.308;20.994;2023-12-07T02:28:00;1.50;99.90
17483;DHT22;8858;52.308;20.994;2023-12-07T02:30:29;1.40;99.90
17483;DHT22;8858;52.308;20.994;2023-12-07T02:32:58;1.50;99.90
17483;DHT22;8858;52.308;20.994;2023-12-07T02:35:29;1.50;99.90
17483;DHT22;8858;52.308;20.994;2023-12-07T02:37:58;1.50;99.90
17483;DHT22;8858;52.308;20.994;2023-12-07T02:40:29;1.50;99.90
17483;DHT22;8858;52.308;20.994;2023-12-07T02:43:00;1.50;99.90
17483;DHT22;8858;52.308;20.994;2023-12-07T02:45:34;1.50;99.90
17483;DHT22;8858;52.308;20.994;2023-12-07T02:48:04;1.50;99.90
17483;DHT22;8858;52.308;20.994;2023-12-07T02:50:32;1.50;99.90
17483;DHT22;8858;52.308;20.994;2023-12-07T02:53:04;1.50;99.90
17483;DHT22;8858;52.308;20.994;2023-12-07T02:55:33;1.50;99.90
17483;DHT22;8858;52.308;20.994;2023-12-07T02:58:04;1.50;99.90
17483;DHT22;8858;52.308;20.994;2023-12-07T03:00:34;1.50;99.90
17483;DHT22;8858;52.308;20.994;2023-12-07T03:03:02;1.50;99.90
17483;DHT22;8858;52.308;20.994;2023-12-07T03:05:30;1.50;99.90
17483;DHT22;8858;52.308;20.994;2023-12-07T03:07:59;1.50;99.90
17483;DHT22;8858;52.308;20.994;2023-12-07T03:10:31;1.50;99.90
17483;DHT22;8858;52.308;20.994;2023-12-07T03:13:00;1.50;99.90
17483;DHT22;8858;52.308;20.994;2023-12-07T03:15:30;1.50;99.90
17483;DHT22;8858;52.308;20.994;2023-12-07T03:17:58;1.50;99.90
17483;DHT22;8858;52.308;20.994;2023-12-07T03:20:27;1.50;99.90
17483;DHT22;8858;52.308;20.994;2023-12-07T03:22:59;1.50;99.90
17483;DHT22;8858;52.308;20.994;2023-12-07T03:25:27;1.50;99.90
17483;DHT22;8858;52.308;20.994;2023-12-07T03:27:56;1.50;99.90
17483;DHT22;8858;52.308;20.994;2023-12-07T03:30:27;1.50;99.90
17483;DHT22;8858;52.308;20.994;2023-12-07T03:32:58;1.50;99.90
17483;DHT22;8858;52.308;20.994;2023-12-07T03:35:29;1.50;99.90
17483;DHT22;8858;52.308;20.994;2023-12-07T03:37:58;1.50;99.90
17483;DHT22;8858;52.308;20.994;2023-12-07T03:40:27;1.50;99.90
17483;DHT22;8858;52.308;20.994;2023-12-07T03:42:56;1.50;99.90
17483;DHT22;8858;52.308;20.994;2023-12-07T03:45:25;1.50;99.90
17483;DHT22;8858;52.308;20.994;2023-12-07T03:47:59;1.50;99.90
17483;DHT22;8858;52.308;20.994;2023-12-07T03:50:28;1.60;99.90
17483;DHT22;8858;52.308;20.994;2023-12-07T03:52:56;1.50;99.90
17483;DHT22;8858;52.308;20.994;2023-12-07T03:55:24;1.60;99.90
17483;DHT22;8858;52.308;20.994;2023-12-07T03:57:53;1.50;99.90
17483;DHT22;8858;52.308;20.994;2023-12-07T04:00:23;1.60;99.90
17483;DHT22;8858;52.308;20.994;2023-12-07T04:02:51;1.60;99.90
17483;DHT22;8858;52.308;20.994;2023-12-07T04:05:22;1.60;99.90
17483;DHT22;8858;52.308;20.994;2023-12-07T04:07:50;1.50;99.90
17483;DHT22;8858;52.308;20.994;2023-12-07T04:10:19;1.60;99.90
17483;DHT22;8858;52.308;20.994;2023-12-07T04:12:48;1.60;99.90
17483;DHT22;8858;52.308;20.994;2023-12-07T04:15:20;1.50;99.90
17483;DHT22;8858;52.308;20.994;2023-12-07T04:17:50;1.60;99.90
17483;DHT22;8858;52.308;20.994;2023-12-07T04:20:22;1.60;99.90
17483;DHT22;8858;52.308;20.994;2023-12-07T04:22:50;1.60;99.90
17483;DHT22;8858;52.308;20.994;2023-12-07T04:25:20;1.60;99.90
17483;DHT22;8858;52.308;20.994;2023-12-07T04:27:49;1.60;99.90
17483;DHT22;8858;52.308;20.994;2023-12-07T04:30:18;1.60;99.90
17483;DHT22;8858;52.308;20.994;2023-12-07T04:32:48;1.60;99.90
17483;DHT22;8858;52.308;20.994;2023-12-07T04:35:17;1.60;99.90
17483;DHT22;8858;52.308;20.994;2023-12-07T04:37:50;1.60;99.90
17483;DHT22;8858;52.308;20.994;2023-12-07T04:40:19;1.60;99.90
17483;DHT22;8858;52.308;20.994;2023-12-07T04:42:48;1.60;99.90
17483;DHT22;8858;52.308;20.994;2023-12-07T04:45:16;1.60;99.90
17483;DHT22;8858;52.308;20.994;2023-12-07T04:47:44;1.60;99.90
17483;DHT22;8858;52.308;20.994;2023-12-07T04:50:17;1.60;99.90
17483;DHT22;8858;52.308;20.994;2023-12-07T04:52:47;1.60;99.90
17483;DHT22;8858;52.308;20.994;2023-12-07T04:55:17;1.60;99.90
17483;DHT22;8858;52.308;20.994;2023-12-07T04:57:45;1.60;99.90
17483;DHT22;8858;52.308;20.994;2023-12-07T05:00:15;1.60;99.90
17483;DHT22;8858;52.308;20.994;2023-12-07T05:02:43;1.60;99.90
17483;DHT22;8858;52.308;20.994;2023-12-07T05:05:11;1.60;99.90
17483;DHT22;8858;52.308;20.994;2023-12-07T05:07:40;1.60;99.90
17483;DHT22;8858;52.308;20.994;2023-12-07T05:10:13;1.60;99.90
17483;DHT22;8858;52.308;20.994;2023-12-07T05:12:42;1.60;99.90
17483;DHT22;8858;52.308;20.994;2023-12-07T05:15:14;1.60;99.90
17483;DHT22;8858;52.308;20.994;2023-12-07T05:17:42;1.60;99.90
17483;DHT22;8858;52.308;20.994;2023-12-07T05:20:11;1.60;99.90
17483;DHT22;8858;52.308;20.994;2023-12-07T05:22:40;1.60;99.90
17483;DHT22;8858;52.308;20.994;2023-12-07T05:25:09;1.60;99.90
17483;DHT22;8858;52.308;20.994;2023-12-07T05:27:37;1.60;99.90
17483;DHT22;8858;52.308;20.994;2023-12-07T05:30:09;1.60;99.90
17483;DHT22;8858;52.308;20.994;2023-12-07T05:32:38;1.60;99.90
17483;DHT22;8858;52.308;20.994;2023-12-07T05:35:08;1.60;99.90
17483;DHT22;8858;52.308;20.994;2023-12-07T05:37:36;1.70;99.90
17483;DHT22;8858;52.308;20.994;2023-12-07T05:40:10;1.70;99.90
17483;DHT22;8858;52.308;20.994;2023-12-07T05:42:39;1.70;99.90
17483;DHT22;8858;52.308;20.994;2023-12-07T05:45:09;1.60;99.90
17483;DHT22;8858;52.308;20.994;2023-12-07T05:47:37;1.70;99.90
17483;DHT22;8858;52.308;20.994;2023-12-07T05:50:07;1.60;99.90
17483;DHT22;8858;52.308;20.994;2023-12-07T05:52:37;1.70;99.90
17483;DHT22;8858;52.308;20.994;2023-12-07T05:55:06;1.70;99.90
17483;DHT22;8858;52.308;20.994;2023-12-07T05:57:36;1.70;99.90
17483;DHT22;8858;52.308;20.994;2023-12-07T06:00:07;1.60;99.90
17483;DHT22;8858;52.308;20.994;2023-12-07T06:02:40;1.70;99.90
17483;DHT22;8858;52.308;20.994;2023-12-07T06:05:11;1.60;99.90
17483;DHT22;8858;52.308;20.994;2023-12-07T06:07:39;1.70;99.90
17483;DHT22;8858;52.308;20.994;2023-12-07T06:10:09;1.60;99.90
17483;DHT22;8858;52.308;20.994;2023-12-07T06:12:38;1.70;99.90
17483;DHT22;8858;52.308;20.994;2023-12-07T06:15:07;1.70;99.90
17483;DHT22;8858;52.308;20.994;2023-12-07T06:17:40;1.70;99.90
17483;DHT22;8858;52.308;20.994;2023-12-07T06:20:10;1.70;99.90
17483;DHT22;8858;52.308;20.994;2023-12-07T06:22:38;1.70;99.90
17483;DHT22;8858;52.308;20.994;2023-12-07T06:25:08;1.70;99.90
17483;DHT22;8858;52.308;20.994;2023-12-07T06:27:38;1.70;99.90
17483;DHT22;8858;52.308;20.994;2023-12-07T06:30:08;1.70;99.90
17483;DHT22;8858;52.308;20.994;2023-12-07T06:32:39;1.70;99.90
17483;DHT22;8858;52.308;20.994;2023-12-07T06:35:11;1.70;99.90
17483;DHT22;8858;52.308;20.994;2023-12-07T06:37:40;1.70;99.90
17483;DHT22;8858;52.308;20.994;2023-12-07T06:40:09;1.70;99.90
17483;DHT22;8858;52.308;20.994;2023-12-07T06:42:38;1.70;99.90
17483;DHT22;8858;52.308;20.994;2023-12-07T06:45:07;1.70;99.90
17483;DHT22;8858;52.308;20.994;2023-12-07T06:47:41;1.70;99.90
17483;DHT22;8858;52.308;20.994;2023-12-07T06:50:09;1.70;99.90
17483;DHT22;8858;52.308;20.994;2023-12-07T06:52:39;1.70;99.90
17483;DHT22;8858;52.308;20.994;2023-12-07T06:55:08;1.70;99.90
17483;DHT22;8858;52.308;20.994;2023-12-07T06:57:39;1.70;99.90
17483;DHT22;8858;52.308;20.994;2023-12-07T07:00:07;1.70;99.90
17483;DHT22;8858;52.308;20.994;2023-12-07T07:02:39;1.70;99.90
17483;DHT22;8858;52.308;20.994;2023-12-07T07:05:08;1.70;99.90
17483;DHT22;8858;52.308;20.994;2023-12-07T07:07:38;1.70;99.90
17483;DHT22;8858;52.308;20.994;2023-12-07T07:10:08;1.80;99.90
17483;DHT22;8858;52.308;20.994;2023-12-07T07:12:39;1.80;99.90
17483;DHT22;8858;52.308;20.994;2023-12-07T07:15:09;1.80;99.90
17483;DHT22;8858;52.308;20.994;2023-12-07T07:17:41;1.80;99.90
17483;DHT22;8858;52.308;20.994;2023-12-07T07:20:10;1.80;99.90
17483;DHT22;8858;52.308;20.994;2023-12-07T07:22:38;1.80;99.90
17483;DHT22;8858;52.308;20.994;2023-12-07T07:25:08;1.80;99.90
17483;DHT22;8858;52.308;20.994;2023-12-07T07:27:36;1.80;99.90
17483;DHT22;8858;52.308;20.994;2023-12-07T07:30:10;1.80;99.90
17483;DHT22;8858;52.308;20.994;2023-12-07T07:32:38;1.80;99.90
17483;DHT22;8858;52.308;20.994;2023-12-07T07:35:08;1.90;99.90
17483;DHT22;8858;52.308;20.994;2023-12-07T07:37:39;1.90;99.90
17483;DHT22;8858;52.308;20.994;2023-12-07T07:40:11;1.90;99.90
17483;DHT22;8858;52.308;20.994;2023-12-07T07:42:39;1.90;99.90
17483;DHT22;8858;52.308;20.994;2023-12-07T07:45:09;1.90;99.90
17483;DHT22;8858;52.308;20.994;2023-12-07T07:47:37;1.90;99.90
17483;DHT22;8858;52.308;20.994;2023-12-07T07:50:08;1.90;99.90
17483;DHT22;8858;52.308;20.994;2023-12-07T07:52:37;1.90;99.90
17483;DHT22;8858;52.308;20.994;2023-12-07T07:55:09;1.90;99.90
17483;DHT22;8858;52.308;20.994;2023-12-07T07:57:38;2.00;99.90
17483;DHT22;8858;52.308;20.994;2023-12-07T08:00:07;2.00;99.90
17483;DHT22;8858;52.308;20.994;2023-12-07T08:02:36;2.00;99.90
17483;DHT22;8858;52.308;20.994;2023-12-07T08:05:05;2.00;99.90
17483;DHT22;8858;52.308;20.994;2023-12-07T08:07:34;2.00;99.90
17483;DHT22;8858;52.308;20.994;2023-12-07T08:10:03;2.00;99.90
17483;DHT22;8858;52.308;20.994;2023-12-07T08:12:32;2.10;99.90
17483;DHT22;8858;52.308;20.994;2023-12-07T08:15:01;2.10;99.90
17483;DHT22;8858;52.308;20.994;2023-12-07T08:17:29;2.10;99.90
17483;DHT22;8858;52.308;20.994;2023-12-07T08:20:00;2.20;99.90
17483;DHT22;8858;52.308;20.994;2023-12-07T08:22:28;2.20;99.90
17483;DHT22;8858;52.308;20.994;2023-12-07T08:24:59;2.20;99.90
17483;DHT22;8858;52.308;20.994;2023-12-07T08:27:37;2.20;99.90
17483;DHT22;8858;52.308;20.994;2023-12-07T08:30:06;2.20;99.90
17483;DHT22;8858;52.308;20.994;2023-12-07T08:32:37;2.30;99.90
17483;DHT22;8858;52.308;20.994;2023-12-07T08:35:06;2.30;99.90
17483;DHT22;8858;52.308;20.994;2023-12-07T08:37:37;2.30;99.90
17483;DHT22;8858;52.308;20.994;2023-12-07T08:40:08;2.30;99.90
17483;DHT22;8858;52.308;20.994;2023-12-07T08:42:38;2.40;99.90
17483;DHT22;8858;52.308;20.994;2023-12-07T08:45:07;2.40;99.90
17483;DHT22;8858;52.308;20.994;2023-12-07T08:47:36;2.40;99.90
17483;DHT22;8858;52.308;20.994;2023-12-07T08:50:05;2.40;99.90
17483;DHT22;8858;52.308;20.994;2023-12-07T08:52:35;2.50;99.90
17483;DHT22;8858;52.308;20.994;2023-12-07T08:55:14;2.50;99.90
17483;DHT22;8858;52.308;20.994;2023-12-07T08:57:44;2.50;99.90
17483;DHT22;8858;52.308;20.994;2023-12-07T09:00:13;2.50;99.90
17483;DHT22;8858;52.308;20.994;2023-12-07T09:02:41;2.50;99.90
17483;DHT22;8858;52.308;20.994;2023-12-07T09:05:14;2.60;99.90
17483;DHT22;8858;52.308;20.994;2023-12-07T09:07:42;2.60;99.90
17483;DHT22;8858;52.308;20.994;2023-12-07T09:10:11;2.60;99.90
17483;DHT22;8858;52.308;20.994;2023-12-07T09:12:42;2.60;99.90
17483;DHT22;8858;52.308;20.994;2023-12-07T09:15:11;2.60;99.90
17483;DHT22;8858;52.308;20.994;2023-12-07T09:17:39;2.70;99.90
17483;DHT22;8858;52.308;20.994;2023-12-07T09:20:10;2.70;99.90
17483;DHT22;8858;52.308;20.994;2023-12-07T09:22:42;2.70;99.90
17483;DHT22;8858;52.308;20.994;2023-12-07T09:25:15;2.70;99.90
17483;DHT22;8858;52.308;20.994;2023-12-07T09:27:46;2.70;99.90
17483;DHT22;8858;52.308;20.994;2023-12-07T09:30:19;2.70;99.90
17483;DHT22;8858;52.308;20.994;2023-12-07T09:32:47;2.70;99.90
17483;DHT22;8858;52.308;20.994;2023-12-07T09:35:16;2.70;99.90
17483;DHT22;8858;52.308;20.994;2023-12-07T09:37:48;2.70;99.90
17483;DHT22;8858;52.308;20.994;2023-12-07T09:40:20;2.70;99.90
17483;DHT22;8858;52.308;20.994;2023-12-07T09:42:53;2.70;99.90
17483;DHT22;8858;52.308;20.994;2023-12-07T09:45:21;2.80;99.90
17483;DHT22;8858;52.308;20.994;2023-12-07T09:47:56;2.80;99.90
17483;DHT22;8858;52.308;20.994;2023-12-07T09:50:26;2.80;99.90
17483;DHT22;8858;52.308;20.994;2023-12-07T09:52:56;2.80;99.90
17483;DHT22;8858;52.308;20.994;2023-12-07T09:55:35;2.80;99.90
17483;DHT22;8858;52.308;20.994;2023-12-07T09:58:07;2.80;99.90
17483;DHT22;8858;52.308;20.994;2023-12-07T10:00:36;2.80;99.90
17483;DHT22;8858;52.308;20.994;2023-12-07T10:03:05;2.80;99.90
17483;DHT22;8858;52.308;20.994;2023-12-07T10:05:54;2.80;99.90
17483;DHT22;8858;52.308;20.994;2023-12-07T10:08:28;2.80;99.90
17483;DHT22;8858;52.308;20.994;2023-12-07T10:11:07;2.80;99.90
17483;DHT22;8858;52.308;20.994;2023-12-07T10:13:40;2.80;99.90
17483;DHT22;8858;52.308;20.994;2023-12-07T10:16:11;2.80;99.90
17483;DHT22;8858;52.308;20.994;2023-12-07T10:18:43;2.80;99.90
17483;DHT22;8858;52.308;20.994;2023-12-07T10:21:12;2.80;99.90
17483;DHT22;8858;52.308;20.994;2023-12-07T10:23:42;2.80;99.90
17483;DHT22;8858;52.308;20.994;2023-12-07T10:26:16;2.80;99.90
17483;DHT22;8858;52.308;20.994;2023-12-07T10:28:52;2.80;99.90
17483;DHT22;8858;52.308;20.994;2023-12-07T10:31:23;2.80;99.90
17483;DHT22;8858;52.308;20.994;2023-12-07T10:33:52;2.80;99.90
17483;DHT22;8858;52.308;20.994;2023-12-07T10:36:22;2.80;99.90
17483;DHT22;8858;52.308;20.994;2023-12-07T10:38:51;2.80;99.90
17483;DHT22;8858;52.308;20.994;2023-12-07T10:41:21;2.80;99.90
17483;DHT22;8858;52.308;20.994;2023-12-07T10:43:54;2.80;99.90
17483;DHT22;8858;52.308;20.994;2023-12-07T10:46:25;2.80;99.90
17483;DHT22;8858;52.308;20.994;2023-12-07T10:48:58;2.80;99.90
17483;DHT22;8858;52.308;20.994;2023-12-07T10:51:34;2.90;99.90
17483;DHT22;8858;52.308;20.994;2023-12-07T10:54:08;2.90;99.90
17483;DHT22;8858;52.308;20.994;2023-12-07T10:56:39;2.90;99.90
17483;DHT22;8858;52.308;20.994;2023-12-07T10:59:13;2.90;99.90
17483;DHT22;8858;52.308;20.994;2023-12-07T11:01:57;2.90;99.90
17483;DHT22;8858;52.308;20.994;2023-12-07T11:04:26;2.90;99.90
17483;DHT22;8858;52.308;20.994;2023-12-07T11:07:02;2.90;99.90
17483;DHT22;8858;52.308;20.994;2023-12-07T11:09:50;2.90;99.90
17483;DHT22;8858;52.308;20.994;2023-12-07T11:12:25;2.90;99.90
17483;DHT22;8858;52.308;20.994;2023-12-07T11:14:57;2.90;99.90
17483;DHT22;8858;52.308;20.994;2023-12-07T11:17:27;2.90;99.90
17483;DHT22;8858;52.308;20.994;2023-12-07T11:19:55;3.00;99.90
17483;DHT22;8858;52.308;20.994;2023-12-07T11:22:24;3.00;99.90
17483;DHT22;8858;52.308;20.994;2023-12-07T11:24:57;3.00;99.90
17483;DHT22;8858;52.308;20.994;2023-12-07T11:27:32;3.00;99.90
17483;DHT22;8858;52.308;20.994;2023-12-07T11:30:02;3.00;99.90
17483;DHT22;8858;52.308;20.994;2023-12-07T11:32:32;3.10;99.90
17483;DHT22;8858;52.308;20.994;2023-12-07T11:35:03;3.10;99.90
17483;DHT22;8858;52.308;20.994;2023-12-07T11:38:00;3.10;99.90
17483;DHT22;8858;52.308;20.994;2023-12-07T11:40:30;3.10;99.90
17483;DHT22;8858;52.308;20.994;2023-12-07T11:43:00;3.10;99.90
17483;DHT22;8858;52.308;20.994;2023-12-07T11:45:47;3.10;99.90
17483;DHT22;8858;52.308;20.994;2023-12-07T11:48:17;3.10;99.90
17483;DHT22;8858;52.308;20.994;2023-12-07T11:50:56;3.10;99.90
17483;DHT22;8858;52.308;20.994;2023-12-07T11:53:26;3.10;99.90
17483;DHT22;8858;52.308;20.994;2023-12-07T11:55:57;3.10;99.90
17483;DHT22;8858;52.308;20.994;2023-12-07T11:58:28;3.10;99.90
17483;DHT22;8858;52.308;20.994;2023-12-07T12:01:01;3.10;99.90
17483;DHT22;8858;52.308;20.994;2023-12-07T12:03:31;3.10;99.90
17483;DHT22;8858;52.308;20.994;2023-12-07T12:06:04;3.10;99.90
17483;DHT22;8858;52.308;20.994;2023-12-07T12:08:36;3.10;99.90
17483;DHT22;8858;52.308;20.994;2023-12-07T12:11:10;3.10;99.90
17483;DHT22;8858;52.308;20.994;2023-12-07T12:13:39;3.00;99.90
17483;DHT22;8858;52.308;20.994;2023-12-07T12:16:09;3.00;99.90
17483;DHT22;8858;52.308;20.994;2023-12-07T12:18:39;3.00;99.90
17483;DHT22;8858;52.308;20.994;2023-12-07T12:21:07;3.00;99.90
17483;DHT22;8858;52.308;20.994;2023-12-07T12:23:37;3.00;99.90
17483;DHT22;8858;52.308;20.994;2023-12-07T12:26:07;3.00;99.90
17483;DHT22;8858;52.308;20.994;2023-12-07T12:28:38;3.00;99.90
17483;DHT22;8858;52.308;20.994;2023-12-07T12:31:14;2.90;99.90
17483;DHT22;8858;52.308;20.994;2023-12-07T12:33:45;3.00;99.90
17483;DHT22;8858;52.308;20.994;2023-12-07T12:36:15;2.90;99.90
17483;DHT22;8858;52.308;20.994;2023-12-07T12:38:46;3.00;99.90
17483;DHT22;8858;52.308;20.994;2023-12-07T12:41:19;2.90;99.90
17483;DHT22;8858;52.308;20.994;2023-12-07T12:43:47;3.00;99.90
17483;DHT22;8858;52.308;20.994;2023-12-07T12:46:18;2.90;99.90
17483;DHT22;8858;52.308;20.994;2023-12-07T12:48:54;2.90;99.90
17483;DHT22;8858;52.308;20.994;2023-12-07T12:51:25;2.90;99.90
17483;DHT22;8858;52.308;20.994;2023-12-07T12:53:55;2.90;99.90
17483;DHT22;8858;52.308;20.994;2023-12-07T12:56:26;2.80;99.90
17483;DHT22;8858;52.308;20.994;2023-12-07T12:58:55;2.80;99.90
17483;DHT22;8858;52.308;20.994;2023-12-07T13:01:32;2.80;99.90
17483;DHT22;8858;52.308;20.994;2023-12-07T13:04:03;2.80;99.90
17483;DHT22;8858;52.308;20.994;2023-12-07T13:06:32;2.80;99.90
17483;DHT22;8858;52.308;20.994;2023-12-07T13:09:00;2.80;99.90
17483;DHT22;8858;52.308;20.994;2023-12-07T13:11:28;2.80;99.90
17483;DHT22;8858;52.308;20.994;2023-12-07T13:13:57;2.80;99.90
17483;DHT22;8858;52.308;20.994;2023-12-07T13:16:31;2.80;99.90
17483;DHT22;8858;52.308;20.994;2023-12-07T13:19:00;2.90;99.90
17483;DHT22;8858;52.308;20.994;2023-12-07T13:21:28;2.80;99.90
17483;DHT22;8858;52.308;20.994;2023-12-07T13:23:57;2.80;99.90
17483;DHT22;8858;52.308;20.994;2023-12-07T13:26:28;2.80;99.90
17483;DHT22;8858;52.308;20.994;2023-12-07T13:28:56;2.80;99.90
17483;DHT22;8858;52.308;20.994;2023-12-07T13:31:25;2.80;99.90
17483;DHT22;8858;52.308;20.994;2023-12-07T13:33:55;2.70;99.90
17483;DHT22;8858;52.308;20.994;2023-12-07T13:36:30;2.70;99.90
17483;DHT22;8858;52.308;20.994;2023-12-07T13:39:00;2.70;99.90
17483;DHT22;8858;52.308;20.994;2023-12-07T13:41:35;2.70;99.90
17483;DHT22;8858;52.308;20.994;2023-12-07T13:44:03;2.70;99.90
17483;DHT22;8858;52.308;20.994;2023-12-07T13:46:42;2.60;99.90
17483;DHT22;8858;52.308;20.994;2023-12-07T13:49:15;2.60;99.90
17483;DHT22;8858;52.308;20.994;2023-12-07T13:51:54;2.60;99.90
17483;DHT22;8858;52.308;20.994;2023-12-07T13:54:22;2.50;99.90
17483;DHT22;8858;52.308;20.994;2023-12-07T13:57:11;2.50;99.90
17483;DHT22;8858;52.308;20.994;2023-12-07T13:59:40;2.50;99.90
17483;DHT22;8858;52.308;20.994;2023-12-07T14:02:10;2.50;99.90
17483;DHT22;8858;52.308;20.994;2023-12-07T14:04:41;2.50;99.90
17483;DHT22;8858;52.308;20.994;2023-12-07T14:07:11;2.50;99.90
17483;DHT22;8858;52.308;20.994;2023-12-07T14:09:42;2.50;99.90
17483;DHT22;8858;52.308;20.994;2023-12-07T14:12:24;2.40;99.90
17483;DHT22;8858;52.308;20.994;2023-12-07T14:14:57;2.40;99.90
17483;DHT22;8858;52.308;20.994;2023-12-07T14:17:26;2.40;99.90
17483;DHT22;8858;52.308;20.994;2023-12-07T14:20:09;2.40;99.90
17483;DHT22;8858;52.308;20.994;2023-12-07T14:22:58;2.30;99.90
17483;DHT22;8858;52.308;20.994;2023-12-07T14:25:31;2.30;99.90
17483;DHT22;8858;52.308;20.994;2023-12-07T14:28:01;2.30;99.90
17483;DHT22;8858;52.308;20.994;2023-12-07T14:30:32;2.30;99.90
17483;DHT22;8858;52.308;20.994;2023-12-07T14:33:03;2.30;99.90
17483;DHT22;8858;52.308;20.994;2023-12-07T14:35:32;2.30;99.90
17483;DHT22;8858;52.308;20.994;2023-12-07T14:38:02;2.30;99.90
17483;DHT22;8858;52.308;20.994;2023-12-07T14:40:31;2.30;99.90
17483;DHT22;8858;52.308;20.994;2023-12-07T14:43:01;2.30;99.90
17483;DHT22;8858;52.308;20.994;2023-12-07T14:45:30;2.20;99.90
17483;DHT22;8858;52.308;20.994;2023-12-07T14:47:58;2.20;99.90
17483;DHT22;8858;52.308;20.994;2023-12-07T14:50:29;2.20;99.90
17483;DHT22;8858;52.308;20.994;2023-12-07T14:52:59;2.20;99.90
17483;DHT22;8858;52.308;20.994;2023-12-07T14:55:30;2.20;99.90
17483;DHT22;8858;52.308;20.994;2023-12-07T14:57:59;2.20;99.90
17483;DHT22;8858;52.308;20.994;2023-12-07T15:00:28;2.10;99.90
17483;DHT22;8858;52.308;20.994;2023-12-07T15:02:57;2.10;99.90
17483;DHT22;8858;52.308;20.994;2023-12-07T15:05:25;2.20;99.90
17483;DHT22;8858;52.308;20.994;2023-12-07T15:07:59;2.20;99.90
17483;DHT22;8858;52.308;20.994;2023-12-07T15:10:27;2.10;99.90
17483;DHT22;8858;52.308;20.994;2023-12-07T15:12:55;2.10;99.90
17483;DHT22;8858;52.308;20.994;2023-12-07T15:15:24;2.10;99.90
17483;DHT22;8858;52.308;20.994;2023-12-07T15:17:52;2.10;99.90
17483;DHT22;8858;52.308;20.994;2023-12-07T15:20:26;2.10;99.90
17483;DHT22;8858;52.308;20.994;2023-12-07T15:22:55;2.10;99.90
17483;DHT22;8858;52.308;20.994;2023-12-07T15:25:25;2.10;99.90
17483;DHT22;8858;52.308;20.994;2023-12-07T15:28:21;2.10;99.90
17483;DHT22;8858;52.308;20.994;2023-12-07T15:30:50;2.10;99.90
17483;DHT22;8858;52.308;20.994;2023-12-07T15:33:19;2.10;99.90
17483;DHT22;8858;52.308;20.994;2023-12-07T15:35:49;2.10;99.90
17483;DHT22;8858;52.308;20.994;2023-12-07T15:38:17;2.10;99.90
17483;DHT22;8858;52.308;20.994;2023-12-07T15:40:48;2.10;99.90
17483;DHT22;8858;52.308;20.994;2023-12-07T15:43:17;2.10;99.90
17483;DHT22;8858;52.308;20.994;2023-12-07T15:45:45;2.10;99.90
17483;DHT22;8858;52.308;20.994;2023-12-07T15:48:18;2.10;99.90
17483;DHT22;8858;52.308;20.994;2023-12-07T15:50:47;2.00;99.90
17483;DHT22;8858;52.308;20.994;2023-12-07T15:53:16;2.00;99.90
17483;DHT22;8858;52.308;20.994;2023-12-07T15:55:45;2.10;99.90
17483;DHT22;8858;52.308;20.994;2023-12-07T15:58:15;2.10;99.90
17483;DHT22;8858;52.308;20.994;2023-12-07T16:00:45;2.00;99.90
17483;DHT22;8858;52.308;20.994;2023-12-07T16:03:14;2.00;99.90
17483;DHT22;8858;52.308;20.994;2023-12-07T16:05:42;2.00;99.90
17483;DHT22;8858;52.308;20.994;2023-12-07T16:08:11;2.00;99.90